sensor_id;sensor_type;location;lat;lon;timestamp;pressure;altitude;pressure_sealevel;temperature;humidity
3250;BME280;1637;42.020;23.992;2023-02-10T00:00:28;94382.47;;;-8.17;83.04
3250;BME280;1637;42.020;23.992;2023-02-10T00:02:56;94380.34;;;-8.47;83.90
3250;BME280;1637;42.020;23.992;2023-02-10T00:05:23;94380.28;;;-8.79;84.22
3250;BME280;1637;42.020;23.992;2023-02-10T00:07:50;94376.75;;;-8.68;84.13
3250;BME280;1637;42.020;23.992;2023-02-10T00:10:18;94380.03;;;-8.55;84.40
3250;BME280;1637;42.020;23.992;2023-02-10T00:12:45;94380.19;;;-8.62;83.55
3250;BME280;1637;42.020;23.992;2023-02-10T00:15:12;94358.81;;;-8.69;82.78
3250;BME280;1637;42.020;23.992;2023-02-10T00:17:39;94380.44;;;-8.63;83.47
3250;BME280;1637;42.020;23.992;2023-02-10T00:20:07;94375.06;;;-8.57;83.29
3250;BME280;1637;42.020;23.992;2023-02-10T00:22:34;94347.19;;;-8.88;83.53
3250;BME280;1637;42.020;23.992;2023-02-10T00:25:00;94379.75;;;-8.00;81.99
3250;BME280;1637;42.020;23.992;2023-02-10T00:27:29;94373.22;;;-8.03;81.30
3250;BME280;1637;42.020;23.992;2023-02-10T00:29:55;94379.56;;;-7.93;80.24
3250;BME280;1637;42.020;23.992;2023-02-10T00:32:22;94374.25;;;-8.31;81.40
3250;BME280;1637;42.020;23.992;2023-02-10T00:34:49;94363.38;;;-8.32;81.25
3250;BME280;1637;42.020;23.992;2023-02-10T00:37:16;94369.34;;;-8.59;81.39
3250;BME280;1637;42.020;23.992;2023-02-10T00:39:43;94378.78;;;-8.48;82.51
3250;BME280;1637;42.020;23.992;2023-02-10T00:42:11;94374.25;;;-8.04;80.46
3250;BME280;1637;42.020;23.992;2023-02-10T00:44:39;94376.41;;;-8.22;80.66
3250;BME280;1637;42.020;23.992;2023-02-10T00:47:06;94371.34;;;-8.39;81.03
3250;BME280;1637;42.020;23.992;2023-02-10T00:49:32;94368.63;;;-8.22;81.41
3250;BME280;1637;42.020;23.992;2023-02-10T00:51:59;94370.91;;;-8.58;81.83
3250;BME280;1637;42.020;23.992;2023-02-10T00:54:26;94370.91;;;-8.58;81.76
3250;BME280;1637;42.020;23.992;2023-02-10T00:56:53;94371.66;;;-8.31;81.04
3250;BME280;1637;42.020;23.992;2023-02-10T00:59:20;94369.41;;;-8.54;82.33
3250;BME280;1637;42.020;23.992;2023-02-10T01:01:48;94363.63;;;-8.34;81.16
3250;BME280;1637;42.020;23.992;2023-02-10T01:04:15;94366.56;;;-8.20;80.52
3250;BME280;1637;42.020;23.992;2023-02-10T01:06:42;94365.59;;;-8.14;79.86
3250;BME280;1637;42.020;23.992;2023-02-10T01:09:09;94370.78;;;-8.14;79.89
3250;BME280;1637;42.020;23.992;2023-02-10T01:11:37;94370.38;;;-8.33;80.10
3250;BME280;1637;42.020;23.992;2023-02-10T01:14:04;94296.28;;;-8.89;81.17
3250;BME280;1637;42.020;23.992;2023-02-10T01:16:31;94367.53;;;-8.58;80.91
3250;BME280;1637;42.020;23.992;2023-02-10T01:18:59;94353.81;;;-9.19;82.72
3250;BME280;1637;42.020;23.992;2023-02-10T01:21:30;94354.59;;;-9.19;84.26
3250;BME280;1637;42.020;23.992;2023-02-10T01:23:57;94370.06;;;-9.07;84.10
3250;BME280;1637;42.020;23.992;2023-02-10T01:26:24;94348.50;;;-9.08;84.20
3250;BME280;1637;42.020;23.992;2023-02-10T01:28:51;94355.50;;;-9.08;84.00
3250;BME280;1637;42.020;23.992;2023-02-10T01:31:19;94355.88;;;-8.99;84.53
3250;BME280;1637;42.020;23.992;2023-02-10T01:33:49;94355.66;;;-8.76;83.40
3250;BME280;1637;42.020;23.992;2023-02-10T01:36:19;94352.28;;;-8.72;82.33
3250;BME280;1637;42.020;23.992;2023-02-10T01:38:46;94347.41;;;-8.68;81.42
3250;BME280;1637;42.020;23.992;2023-02-10T01:41:14;94352.75;;;-9.02;82.17
3250;BME280;1637;42.020;23.992;2023-02-10T01:43:56;94353.47;;;-9.06;82.82
3250;BME280;1637;42.020;23.992;2023-02-10T01:46:24;94347.13;;;-9.15;83.18
3250;BME280;1637;42.020;23.992;2023-02-10T01:48:51;94350.44;;;-9.58;84.39
3250;BME280;1637;42.020;23.992;2023-02-10T01:51:25;94341.69;;;-9.35;83.89
3250;BME280;1637;42.020;23.992;2023-02-10T01:53:54;94334.25;;;-9.65;84.29
3250;BME280;1637;42.020;23.992;2023-02-10T01:56:21;94340.63;;;-9.73;85.36
3250;BME280;1637;42.020;23.992;2023-02-10T01:58:48;94338.13;;;-9.85;84.96
3250;BME280;1637;42.020;23.992;2023-02-10T02:01:16;94345.50;;;-10.10;86.54
3250;BME280;1637;42.020;23.992;2023-02-10T02:03:43;94299.47;;;-10.25;85.97
3250;BME280;1637;42.020;23.992;2023-02-10T02:06:10;94344.41;;;-9.81;86.28
3250;BME280;1637;42.020;23.992;2023-02-10T02:08:39;94350.19;;;-9.18;83.17
3250;BME280;1637;42.020;23.992;2023-02-10T02:11:21;94340.28;;;-9.43;83.72
3250;BME280;1637;42.020;23.992;2023-02-10T02:14:00;94338.50;;;-9.59;84.28
3250;BME280;1637;42.020;23.992;2023-02-10T02:16:43;94336.91;;;-9.44;84.24
3250;BME280;1637;42.020;23.992;2023-02-10T02:19:30;94337.91;;;-9.45;83.98
3250;BME280;1637;42.020;23.992;2023-02-10T02:22:27;94329.44;;;-9.40;83.62
3250;BME280;1637;42.020;23.992;2023-02-10T02:25:12;94335.94;;;-9.38;82.82
3250;BME280;1637;42.020;23.992;2023-02-10T02:28:01;94335.97;;;-8.94;81.48
3250;BME280;1637;42.020;23.992;2023-02-10T02:30:50;94343.56;;;-8.87;79.64
3250;BME280;1637;42.020;23.992;2023-02-10T02:33:22;94333.88;;;-9.14;80.23
3250;BME280;1637;42.020;23.992;2023-02-10T02:35:55;94327.84;;;-9.41;80.89
3250;BME280;1637;42.020;23.992;2023-02-10T02:38:25;94323.66;;;-9.64;82.39
3250;BME280;1637;42.020;23.992;2023-02-10T02:40:51;94326.31;;;-9.59;82.91
3250;BME280;1637;42.020;23.992;2023-02-10T02:43:18;94318.53;;;-9.76;83.61
3250;BME280;1637;42.020;23.992;2023-02-10T02:45:51;94323.91;;;-9.82;83.67
3250;BME280;1637;42.020;23.992;2023-02-10T02:48:31;94312.97;;;-9.67;83.63
3250;BME280;1637;42.020;23.992;2023-02-10T02:51:08;94193.75;;;-10.45;83.32
3250;BME280;1637;42.020;23.992;2023-02-10T02:53:45;94316.28;;;-9.72;82.94
3250;BME280;1637;42.020;23.992;2023-02-10T02:56:21;94319.78;;;-10.00;83.60
3250;BME280;1637;42.020;23.992;2023-02-10T02:58:55;94311.81;;;-10.10;85.01
3250;BME280;1637;42.020;23.992;2023-02-10T03:01:28;94316.38;;;-10.00;84.06
3250;BME280;1637;42.020;23.992;2023-02-10T03:03:57;94309.91;;;-10.20;84.14
3250;BME280;1637;42.020;23.992;2023-02-10T03:06:25;94327.47;;;-10.22;84.64
3250;BME280;1637;42.020;23.992;2023-02-10T03:08:52;94310.47;;;-10.63;85.50
3250;BME280;1637;42.020;23.992;2023-02-10T03:11:20;94322.75;;;-10.42;86.00
3250;BME280;1637;42.020;23.992;2023-02-10T03:13:47;94327.72;;;-10.23;85.56
3250;BME280;1637;42.020;23.992;2023-02-10T03:16:13;94318.03;;;-10.45;86.18
3250;BME280;1637;42.020;23.992;2023-02-10T03:18:40;94326.03;;;-9.96;85.24
3250;BME280;1637;42.020;23.992;2023-02-10T03:21:08;94327.03;;;-9.97;84.54
3250;BME280;1637;42.020;23.992;2023-02-10T03:23:35;94323.97;;;-9.94;85.40
3250;BME280;1637;42.020;23.992;2023-02-10T03:26:02;94309.19;;;-10.32;84.93
3250;BME280;1637;42.020;23.992;2023-02-10T03:28:29;94313.66;;;-10.44;85.88
3250;BME280;1637;42.020;23.992;2023-02-10T03:30:56;94320.28;;;-10.20;84.97
3250;BME280;1637;42.020;23.992;2023-02-10T03:33:23;94309.63;;;-10.35;84.47
3250;BME280;1637;42.020;23.992;2023-02-10T03:35:50;94323.16;;;-10.33;84.30
3250;BME280;1637;42.020;23.992;2023-02-10T03:38:19;94328.19;;;-10.26;84.67
3250;BME280;1637;42.020;23.992;2023-02-10T03:40:48;94296.97;;;-10.82;86.61
3250;BME280;1637;42.020;23.992;2023-02-10T03:43:15;94310.56;;;-10.58;87.05
3250;BME280;1637;42.020;23.992;2023-02-10T03:45:42;94308.25;;;-10.71;87.93
3250;BME280;1637;42.020;23.992;2023-02-10T03:48:09;94304.53;;;-10.47;87.30
3250;BME280;1637;42.020;23.992;2023-02-10T03:50:36;94305.44;;;-10.69;88.01
3250;BME280;1637;42.020;23.992;2023-02-10T03:53:03;94309.97;;;-10.31;87.72
3250;BME280;1637;42.020;23.992;2023-02-10T03:55:31;94307.09;;;-10.13;85.91
3250;BME280;1637;42.020;23.992;2023-02-10T03:57:59;94299.34;;;-10.13;84.85
3250;BME280;1637;42.020;23.992;2023-02-10T04:00:26;94303.56;;;-9.90;83.65
3250;BME280;1637;42.020;23.992;2023-02-10T04:02:53;94291.03;;;-9.98;83.35
3250;BME280;1637;42.020;23.992;2023-02-10T04:05:20;94306.16;;;-9.90;82.90
3250;BME280;1637;42.020;23.992;2023-02-10T04:07:46;94309.81;;;-10.42;83.38
3250;BME280;1637;42.020;23.992;2023-02-10T04:10:13;94302.25;;;-10.10;83.78
3250;BME280;1637;42.020;23.992;2023-02-10T04:12:42;94307.22;;;-10.42;84.34
3250;BME280;1637;42.020;23.992;2023-02-10T04:15:09;94298.94;;;-10.72;85.42
3250;BME280;1637;42.020;23.992;2023-02-10T04:17:35;94278.34;;;-10.79;86.44
3250;BME280;1637;42.020;23.992;2023-02-10T04:20:02;94298.44;;;-10.86;86.09
3250;BME280;1637;42.020;23.992;2023-02-10T04:22:29;94299.03;;;-10.67;85.78
3250;BME280;1637;42.020;23.992;2023-02-10T04:24:56;94302.78;;;-10.58;85.06
3250;BME280;1637;42.020;23.992;2023-02-10T04:27:23;94283.66;;;-11.02;85.63
3250;BME280;1637;42.020;23.992;2023-02-10T04:29:51;94298.94;;;-10.72;84.43
3250;BME280;1637;42.020;23.992;2023-02-10T04:32:18;94310.50;;;-10.46;84.80
3250;BME280;1637;42.020;23.992;2023-02-10T04:34:45;94296.25;;;-10.77;84.95
3250;BME280;1637;42.020;23.992;2023-02-10T04:37:12;94294.06;;;-10.68;84.48
3250;BME280;1637;42.020;23.992;2023-02-10T04:39:39;94299.72;;;-10.71;84.90
3250;BME280;1637;42.020;23.992;2023-02-10T04:42:06;94304.22;;;-10.33;83.28
3250;BME280;1637;42.020;23.992;2023-02-10T04:44:33;94293.88;;;-10.33;82.13
3250;BME280;1637;42.020;23.992;2023-02-10T04:47:01;94303.78;;;-10.76;83.53
3250;BME280;1637;42.020;23.992;2023-02-10T04:49:28;94300.84;;;-10.79;84.01
3250;BME280;1637;42.020;23.992;2023-02-10T04:51:55;94297.13;;;-10.71;84.01
3250;BME280;1637;42.020;23.992;2023-02-10T04:54:22;94296.97;;;-10.82;84.68
3250;BME280;1637;42.020;23.992;2023-02-10T04:56:49;94297.81;;;-10.31;83.79
3250;BME280;1637;42.020;23.992;2023-02-10T04:59:15;94306.50;;;-10.03;81.74
3250;BME280;1637;42.020;23.992;2023-02-10T05:01:42;94308.69;;;-10.12;81.11
3250;BME280;1637;42.020;23.992;2023-02-10T05:04:10;94310.97;;;-9.99;81.87
3250;BME280;1637;42.020;23.992;2023-02-10T05:06:37;94310.94;;;-10.21;81.25
3250;BME280;1637;42.020;23.992;2023-02-10T05:09:04;94306.09;;;-10.62;82.05
3250;BME280;1637;42.020;23.992;2023-02-10T05:11:31;94305.59;;;-11.04;83.77
3250;BME280;1637;42.020;23.992;2023-02-10T05:13:57;94312.56;;;-10.77;84.17
3250;BME280;1637;42.020;23.992;2023-02-10T05:16:24;94304.81;;;-11.05;83.68
3250;BME280;1637;42.020;23.992;2023-02-10T05:18:51;94300.81;;;-11.24;84.83
3250;BME280;1637;42.020;23.992;2023-02-10T05:21:19;94306.16;;;-11.14;85.29
3250;BME280;1637;42.020;23.992;2023-02-10T05:23:46;94310.94;;;-11.34;86.42
3250;BME280;1637;42.020;23.992;2023-02-10T05:26:13;94322.47;;;-11.02;85.62
3250;BME280;1637;42.020;23.992;2023-02-10T05:28:40;94317.25;;;-11.30;86.74
3250;BME280;1637;42.020;23.992;2023-02-10T05:31:06;94316.63;;;-11.72;87.44
3250;BME280;1637;42.020;23.992;2023-02-10T05:33:33;94304.03;;;-11.57;87.57
3250;BME280;1637;42.020;23.992;2023-02-10T05:36:01;94315.06;;;-11.10;87.59
3250;BME280;1637;42.020;23.992;2023-02-10T05:38:29;94326.03;;;-11.43;87.67
3250;BME280;1637;42.020;23.992;2023-02-10T05:40:56;94307.47;;;-11.40;86.70
3250;BME280;1637;42.020;23.992;2023-02-10T05:43:23;94289.84;;;-11.43;86.58
3250;BME280;1637;42.020;23.992;2023-02-10T05:45:50;94317.66;;;-11.22;85.68
3250;BME280;1637;42.020;23.992;2023-02-10T05:48:16;94330.22;;;-11.14;85.69
3250;BME280;1637;42.020;23.992;2023-02-10T05:50:43;94326.13;;;-11.38;86.11
3250;BME280;1637;42.020;23.992;2023-02-10T05:53:10;94324.25;;;-11.54;87.68
3250;BME280;1637;42.020;23.992;2023-02-10T05:55:39;94326.50;;;-11.69;88.69
3250;BME280;1637;42.020;23.992;2023-02-10T05:58:06;94327.38;;;-11.52;88.64
3250;BME280;1637;42.020;23.992;2023-02-10T06:00:33;94325.34;;;-11.27;88.16
3250;BME280;1637;42.020;23.992;2023-02-10T06:03:00;94330.19;;;-11.54;88.51
3250;BME280;1637;42.020;23.992;2023-02-10T06:05:26;94329.50;;;-11.26;88.04
3250;BME280;1637;42.020;23.992;2023-02-10T06:07:53;94333.59;;;-11.01;87.45
3250;BME280;1637;42.020;23.992;2023-02-10T06:10:21;94339.28;;;-9.20;82.88
3250;BME280;1637;42.020;23.992;2023-02-10T06:12:49;94342.13;;;-8.78;76.47
3250;BME280;1637;42.020;23.992;2023-02-10T06:15:16;94336.53;;;-9.30;76.59
3250;BME280;1637;42.020;23.992;2023-02-10T06:17:43;94336.84;;;-9.65;79.23
3250;BME280;1637;42.020;23.992;2023-02-10T06:20:10;94335.09;;;-9.43;78.60
3250;BME280;1637;42.020;23.992;2023-02-10T06:22:37;94338.78;;;-9.56;79.76
3250;BME280;1637;42.020;23.992;2023-02-10T06:25:05;94337.91;;;-9.45;79.75
3250;BME280;1637;42.020;23.992;2023-02-10T06:27:31;94337.38;;;-9.47;79.89
3250;BME280;1637;42.020;23.992;2023-02-10T06:29:59;94346.94;;;-9.09;80.03
3250;BME280;1637;42.020;23.992;2023-02-10T06:32:26;94344.94;;;-7.62;89.78
3250;BME280;1637;42.020;23.992;2023-02-10T06:34:53;94347.38;;;-7.50;77.69
3250;BME280;1637;42.020;23.992;2023-02-10T06:37:20;94341.34;;;-6.36;72.83
3250;BME280;1637;42.020;23.992;2023-02-10T06:39:47;94367.38;;;-4.20;63.58
3250;BME280;1637;42.020;23.992;2023-02-10T06:42:13;94364.25;;;-2.67;58.61
3250;BME280;1637;42.020;23.992;2023-02-10T06:44:40;94367.78;;;-1.73;54.73
3250;BME280;1637;42.020;23.992;2023-02-10T06:47:08;94371.69;;;-1.51;53.99
3250;BME280;1637;42.020;23.992;2023-02-10T06:49:35;94376.94;;;-0.59;50.91
3250;BME280;1637;42.020;23.992;2023-02-10T06:52:03;94366.25;;;0.15;48.81
3250;BME280;1637;42.020;23.992;2023-02-10T06:54:29;94368.97;;;0.90;46.86
3250;BME280;1637;42.020;23.992;2023-02-10T06:56:56;94346.50;;;0.26;47.66
3250;BME280;1637;42.020;23.992;2023-02-10T06:59:23;94379.56;;;-0.04;48.87
3250;BME280;1637;42.020;23.992;2023-02-10T07:01:50;94379.16;;;0.83;47.01
3250;BME280;1637;42.020;23.992;2023-02-10T07:04:20;94366.78;;;0.61;47.28
3250;BME280;1637;42.020;23.992;2023-02-10T07:06:47;94383.63;;;1.27;45.85
3250;BME280;1637;42.020;23.992;2023-02-10T07:09:13;94374.13;;;2.31;43.53
3250;BME280;1637;42.020;23.992;2023-02-10T07:11:40;94375.88;;;2.27;42.92
3250;BME280;1637;42.020;23.992;2023-02-10T07:14:07;94373.84;;;2.85;42.51
3250;BME280;1637;42.020;23.992;2023-02-10T07:16:33;94377.25;;;3.02;41.02
3250;BME280;1637;42.020;23.992;2023-02-10T07:19:00;94369.56;;;1.80;43.31
3250;BME280;1637;42.020;23.992;2023-02-10T07:21:29;94368.19;;;2.08;43.36
3250;BME280;1637;42.020;23.992;2023-02-10T07:23:56;94376.78;;;1.57;45.34
3250;BME280;1637;42.020;23.992;2023-02-10T07:26:23;94379.53;;;3.13;41.66
3250;BME280;1637;42.020;23.992;2023-02-10T07:28:50;94373.22;;;2.27;43.38
3250;BME280;1637;42.020;23.992;2023-02-10T07:31:16;94377.13;;;2.64;42.77
3250;BME280;1637;42.020;23.992;2023-02-10T07:33:43;94372.56;;;3.08;41.49
3250;BME280;1637;42.020;23.992;2023-02-10T07:36:10;94361.72;;;2.58;42.32
3250;BME280;1637;42.020;23.992;2023-02-10T07:38:38;94361.88;;;2.61;42.29
3250;BME280;1637;42.020;23.992;2023-02-10T07:41:05;94363.81;;;3.25;40.98
3250;BME280;1637;42.020;23.992;2023-02-10T07:43:32;94361.31;;;3.20;41.88
3250;BME280;1637;42.020;23.992;2023-02-10T07:45:59;94358.97;;;4.24;38.82
3250;BME280;1637;42.020;23.992;2023-02-10T07:48:27;94354.59;;;3.98;39.43
3250;BME280;1637;42.020;23.992;2023-02-10T07:50:53;94355.97;;;2.64;42.62
3250;BME280;1637;42.020;23.992;2023-02-10T07:53:21;94318.41;;;1.76;45.01
3250;BME280;1637;42.020;23.992;2023-02-10T07:55:49;94354.88;;;2.57;43.85
3250;BME280;1637;42.020;23.992;2023-02-10T07:58:16;94337.28;;;2.69;42.47
3250;BME280;1637;42.020;23.992;2023-02-10T08:00:43;94331.25;;;2.43;42.81
3250;BME280;1637;42.020;23.992;2023-02-10T08:03:12;94332.63;;;2.32;44.71
3250;BME280;1637;42.020;23.992;2023-02-10T08:05:39;94341.72;;;3.88;44.03
3250;BME280;1637;42.020;23.992;2023-02-10T08:08:07;94343.34;;;4.31;40.38
3250;BME280;1637;42.020;23.992;2023-02-10T08:10:34;94341.41;;;4.94;38.77
3250;BME280;1637;42.020;23.992;2023-02-10T08:13:04;94346.34;;;3.32;44.67
3250;BME280;1637;42.020;23.992;2023-02-10T08:15:31;94346.19;;;3.96;41.79
3250;BME280;1637;42.020;23.992;2023-02-10T08:17:58;94323.50;;;4.91;39.13
3250;BME280;1637;42.020;23.992;2023-02-10T08:20:25;94344.47;;;5.16;39.82
3250;BME280;1637;42.020;23.992;2023-02-10T08:22:53;94347.97;;;5.53;38.05
3250;BME280;1637;42.020;23.992;2023-02-10T08:25:20;94346.06;;;3.93;41.13
3250;BME280;1637;42.020;23.992;2023-02-10T08:27:47;94344.66;;;4.78;40.90
3250;BME280;1637;42.020;23.992;2023-02-10T08:30:16;94344.41;;;5.37;40.10
3250;BME280;1637;42.020;23.992;2023-02-10T08:32:43;94340.41;;;5.19;39.54
3250;BME280;1637;42.020;23.992;2023-02-10T08:35:10;94335.75;;;4.62;41.06
3250;BME280;1637;42.020;23.992;2023-02-10T08:37:37;94343.59;;;5.25;40.09
3250;BME280;1637;42.020;23.992;2023-02-10T08:40:04;94332.31;;;4.62;41.22
3250;BME280;1637;42.020;23.992;2023-02-10T08:42:31;94335.63;;;4.59;40.97
3250;BME280;1637;42.020;23.992;2023-02-10T08:44:58;94334.66;;;5.41;39.99
3250;BME280;1637;42.020;23.992;2023-02-10T08:47:26;94331.88;;;3.68;43.83
3250;BME280;1637;42.020;23.992;2023-02-10T08:49:53;94337.00;;;4.98;41.36
3250;BME280;1637;42.020;23.992;2023-02-10T08:52:22;94330.38;;;5.04;40.09
3250;BME280;1637;42.020;23.992;2023-02-10T08:54:49;94307.81;;;4.23;40.76
3250;BME280;1637;42.020;23.992;2023-02-10T08:57:16;94313.94;;;4.77;41.12
3250;BME280;1637;42.020;23.992;2023-02-10T08:59:43;94316.19;;;5.69;38.85
3250;BME280;1637;42.020;23.992;2023-02-10T09:02:10;94313.06;;;5.43;40.15
3250;BME280;1637;42.020;23.992;2023-02-10T09:04:39;94318.66;;;5.99;38.93
3250;BME280;1637;42.020;23.992;2023-02-10T09:07:06;94318.34;;;6.80;36.38
3250;BME280;1637;42.020;23.992;2023-02-10T09:09:38;94303.03;;;5.73;38.10
3250;BME280;1637;42.020;23.992;2023-02-10T09:12:05;94305.47;;;6.02;37.09
3250;BME280;1637;42.020;23.992;2023-02-10T09:14:32;94299.81;;;5.92;36.39
3250;BME280;1637;42.020;23.992;2023-02-10T09:16:59;94296.22;;;6.36;35.31
3250;BME280;1637;42.020;23.992;2023-02-10T09:19:26;94296.47;;;6.07;36.20
3250;BME280;1637;42.020;23.992;2023-02-10T09:21:54;94294.28;;;4.37;39.26
3250;BME280;1637;42.020;23.992;2023-02-10T09:24:22;94253.88;;;4.85;37.97
3250;BME280;1637;42.020;23.992;2023-02-10T09:26:51;94295.94;;;5.89;36.09
3250;BME280;1637;42.020;23.992;2023-02-10T09:29:18;94290.03;;;5.83;36.05
3250;BME280;1637;42.020;23.992;2023-02-10T09:31:45;94285.53;;;5.72;36.81
3250;BME280;1637;42.020;23.992;2023-02-10T09:34:12;94286.09;;;6.98;34.56
3250;BME280;1637;42.020;23.992;2023-02-10T09:36:39;94288.50;;;6.19;36.51
3250;BME280;1637;42.020;23.992;2023-02-10T09:39:08;94276.66;;;5.80;37.33
3250;BME280;1637;42.020;23.992;2023-02-10T09:41:41;94281.72;;;5.12;38.84
3250;BME280;1637;42.020;23.992;2023-02-10T09:44:15;94268.91;;;5.63;38.85
3250;BME280;1637;42.020;23.992;2023-02-10T09:47:03;94264.25;;;5.72;38.86
3250;BME280;1637;42.020;23.992;2023-02-10T09:49:46;94260.34;;;5.21;38.71
3250;BME280;1637;42.020;23.992;2023-02-10T09:52:24;94266.91;;;5.23;39.44
3250;BME280;1637;42.020;23.992;2023-02-10T09:54:56;94252.53;;;5.36;38.47
3250;BME280;1637;42.020;23.992;2023-02-10T09:57:29;94254.75;;;5.34;38.83
3250;BME280;1637;42.020;23.992;2023-02-10T10:00:00;94243.34;;;4.64;38.44
3250;BME280;1637;42.020;23.992;2023-02-10T10:02:31;94245.44;;;5.28;39.55
3250;BME280;1637;42.020;23.992;2023-02-10T10:05:06;94240.22;;;6.33;36.18
3250;BME280;1637;42.020;23.992;2023-02-10T10:07:41;94239.59;;;6.79;35.69
3250;BME280;1637;42.020;23.992;2023-02-10T10:10:14;94243.06;;;6.68;34.39
3250;BME280;1637;42.020;23.992;2023-02-10T10:12:43;94242.78;;;7.01;34.61
3250;BME280;1637;42.020;23.992;2023-02-10T10:15:14;94236.66;;;6.41;34.47
3250;BME280;1637;42.020;23.992;2023-02-10T10:17:50;94233.72;;;6.74;33.86
3250;BME280;1637;42.020;23.992;2023-02-10T10:20:35;94225.06;;;5.08;35.39
3250;BME280;1637;42.020;23.992;2023-02-10T10:23:23;94224.84;;;5.25;34.20
3250;BME280;1637;42.020;23.992;2023-02-10T10:26:02;94221.50;;;5.77;34.93
3250;BME280;1637;42.020;23.992;2023-02-10T10:28:55;94218.91;;;6.05;35.12
3250;BME280;1637;42.020;23.992;2023-02-10T10:31:29;94217.09;;;6.49;34.45
3250;BME280;1637;42.020;23.992;2023-02-10T10:34:00;94214.19;;;6.26;34.86
3250;BME280;1637;42.020;23.992;2023-02-10T10:36:32;94205.56;;;5.77;35.41
3250;BME280;1637;42.020;23.992;2023-02-10T10:39:01;94203.75;;;6.61;34.89
3250;BME280;1637;42.020;23.992;2023-02-10T10:41:31;94196.66;;;6.25;34.96
3250;BME280;1637;42.020;23.992;2023-02-10T10:43:58;94210.38;;;6.83;34.29
3250;BME280;1637;42.020;23.992;2023-02-10T10:46:28;94198.28;;;6.85;34.72
3250;BME280;1637;42.020;23.992;2023-02-10T10:49:00;94204.47;;;6.46;34.14
3250;BME280;1637;42.020;23.992;2023-02-10T10:51:27;94197.13;;;5.75;35.51
3250;BME280;1637;42.020;23.992;2023-02-10T10:53:56;94184.50;;;5.72;36.08
3250;BME280;1637;42.020;23.992;2023-02-10T10:56:32;94181.09;;;6.11;35.15
3250;BME280;1637;42.020;23.992;2023-02-10T10:59:03;94160.31;;;6.01;34.74
3250;BME280;1637;42.020;23.992;2023-02-10T11:01:39;94091.97;;;5.09;32.65
3250;BME280;1637;42.020;23.992;2023-02-10T11:04:11;94183.13;;;5.13;34.80
3250;BME280;1637;42.020;23.992;2023-02-10T11:06:40;94176.00;;;5.66;34.30
3250;BME280;1637;42.020;23.992;2023-02-10T11:09:19;94176.75;;;5.79;33.28
3250;BME280;1637;42.020;23.992;2023-02-10T11:11:49;94169.50;;;5.27;33.74
3250;BME280;1637;42.020;23.992;2023-02-10T11:14:20;94160.78;;;4.00;36.37
3250;BME280;1637;42.020;23.992;2023-02-10T11:16:49;94158.03;;;4.41;34.54
3250;BME280;1637;42.020;23.992;2023-02-10T11:19:19;94161.09;;;5.25;34.62
3250;BME280;1637;42.020;23.992;2023-02-10T11:21:46;94183.59;;;5.15;35.03
3250;BME280;1637;42.020;23.992;2023-02-10T11:24:19;94154.69;;;5.38;32.99
3250;BME280;1637;42.020;23.992;2023-02-10T11:26:59;94113.66;;;4.87;31.97
3250;BME280;1637;42.020;23.992;2023-02-10T11:29:28;94145.59;;;5.27;31.21
3250;BME280;1637;42.020;23.992;2023-02-10T11:31:55;94144.97;;;5.18;31.05
3250;BME280;1637;42.020;23.992;2023-02-10T11:34:28;94137.63;;;5.27;29.30
3250;BME280;1637;42.020;23.992;2023-02-10T11:36:57;94132.94;;;6.01;30.30
3250;BME280;1637;42.020;23.992;2023-02-10T11:39:27;94133.44;;;6.18;28.82
3250;BME280;1637;42.020;23.992;2023-02-10T11:41:57;94125.50;;;5.14;31.57
3250;BME280;1637;42.020;23.992;2023-02-10T11:44:33;94120.59;;;5.28;31.01
3250;BME280;1637;42.020;23.992;2023-02-10T11:47:01;94118.97;;;4.87;31.14
3250;BME280;1637;42.020;23.992;2023-02-10T11:49:30;94126.78;;;5.32;27.29
3250;BME280;1637;42.020;23.992;2023-02-10T11:52:00;94117.78;;;5.49;24.81
3250;BME280;1637;42.020;23.992;2023-02-10T11:54:28;94126.56;;;5.37;24.70
3250;BME280;1637;42.020;23.992;2023-02-10T11:57:11;94113.47;;;5.57;24.41
3250;BME280;1637;42.020;23.992;2023-02-10T12:00:09;94122.88;;;5.42;23.43
3250;BME280;1637;42.020;23.992;2023-02-10T12:02:51;94110.50;;;5.34;23.85
3250;BME280;1637;42.020;23.992;2023-02-10T12:05:28;94115.94;;;5.37;24.29
3250;BME280;1637;42.020;23.992;2023-02-10T12:08:10;94104.63;;;5.40;25.11
3250;BME280;1637;42.020;23.992;2023-02-10T12:10:44;94111.22;;;5.06;24.39
3250;BME280;1637;42.020;23.992;2023-02-10T12:13:21;94092.19;;;5.04;25.97
3250;BME280;1637;42.020;23.992;2023-02-10T12:16:00;94089.31;;;5.09;25.39
3250;BME280;1637;42.020;23.992;2023-02-10T12:18:41;94086.84;;;5.29;27.04
3250;BME280;1637;42.020;23.992;2023-02-10T12:21:23;94099.00;;;5.30;26.56
3250;BME280;1637;42.020;23.992;2023-02-10T12:24:06;94079.69;;;5.17;26.97
3250;BME280;1637;42.020;23.992;2023-02-10T12:26:41;94081.09;;;5.27;25.88
3250;BME280;1637;42.020;23.992;2023-02-10T12:29:24;94073.88;;;5.27;24.94
3250;BME280;1637;42.020;23.992;2023-02-10T12:32:00;94082.69;;;5.43;25.11
3250;BME280;1637;42.020;23.992;2023-02-10T12:34:43;94071.22;;;5.27;23.86
3250;BME280;1637;42.020;23.992;2023-02-10T12:37:23;94075.59;;;5.07;21.90
3250;BME280;1637;42.020;23.992;2023-02-10T12:40:17;94077.13;;;5.61;24.88
3250;BME280;1637;42.020;23.992;2023-02-10T12:42:55;94071.91;;;5.64;22.60
3250;BME280;1637;42.020;23.992;2023-02-10T12:45:32;94066.44;;;5.73;23.14
3250;BME280;1637;42.020;23.992;2023-02-10T12:48:07;94073.25;;;5.86;24.76
3250;BME280;1637;42.020;23.992;2023-02-10T12:50:48;94065.66;;;5.72;22.33
3250;BME280;1637;42.020;23.992;2023-02-10T12:53:23;94072.06;;;5.43;21.33
3250;BME280;1637;42.020;23.992;2023-02-10T12:55:54;94071.59;;;5.13;21.54
3250;BME280;1637;42.020;23.992;2023-02-10T12:58:27;94072.84;;;4.92;22.51
3250;BME280;1637;42.020;23.992;2023-02-10T13:01:05;94077.94;;;4.84;22.48
3250;BME280;1637;42.020;23.992;2023-02-10T13:03:37;94075.47;;;4.79;21.96
3250;BME280;1637;42.020;23.992;2023-02-10T13:06:19;94077.50;;;4.70;21.55
3250;BME280;1637;42.020;23.992;2023-02-10T13:08:49;94078.03;;;4.88;22.16
3250;BME280;1637;42.020;23.992;2023-02-10T13:11:23;94079.59;;;4.89;22.03
3250;BME280;1637;42.020;23.992;2023-02-10T13:13:53;94073.28;;;4.69;20.19
3250;BME280;1637;42.020;23.992;2023-02-10T13:16:25;94035.91;;;4.13;21.05
3250;BME280;1637;42.020;23.992;2023-02-10T13:18:59;94075.50;;;4.67;20.19
3250;BME280;1637;42.020;23.992;2023-02-10T13:21:30;94069.19;;;4.72;19.73
3250;BME280;1637;42.020;23.992;2023-02-10T13:24:06;94078.25;;;4.83;20.38
3250;BME280;1637;42.020;23.992;2023-02-10T13:26:44;94072.94;;;4.83;20.13
3250;BME280;1637;42.020;23.992;2023-02-10T13:29:20;94040.56;;;4.53;19.27